createdAt,value
2018-09-13T00:00:15.520Z,4.00
2018-09-13T00:01:15.505Z,4.00
2018-09-13T00:02:15.486Z,4.00
2018-09-13T00:03:15.473Z,4.00
2018-09-13T00:04:15.453Z,4.00
2018-09-13T00:05:15.439Z,4.00
2018-09-13T00:06:15.423Z,4.00
2018-09-13T00:07:15.413Z,4.00
2018-09-13T00:08:15.387Z,4.00
2018-09-13T00:09:15.518Z,4.00
2018-09-13T00:10:15.363Z,4.00
2018-09-13T00:11:15.337Z,4.00
2018-09-13T00:12:15.422Z,4.00
2018-09-13T00:13:15.309Z,4.00
2018-09-13T00:14:15.294Z,4.00
2018-09-13T00:15:15.273Z,4.00
2018-09-13T00:16:15.254Z,4.00
2018-09-13T00:17:15.241Z,4.00
2018-09-13T00:18:15.227Z,4.00
2018-09-13T00:19:15.205Z,4.00
2018-09-13T00:20:15.187Z,4.00
2018-09-13T00:21:15.170Z,4.00
2018-09-13T00:22:15.152Z,4.00
2018-09-13T00:23:15.134Z,4.00
2018-09-13T00:24:15.121Z,4.00
2018-09-13T00:25:15.106Z,4.00
2018-09-13T00:26:15.093Z,4.00
2018-09-13T00:27:15.071Z,4.00
2018-09-13T00:28:15.051Z,4.00
2018-09-13T00:29:15.037Z,4.00
2018-09-13T00:30:15.019Z,4.00
2018-09-13T00:31:15.003Z,4.00
2018-09-13T00:32:14.986Z,4.00
2018-09-13T00:33:14.971Z,4.00
2018-09-13T00:34:14.950Z,4.00
2018-09-13T00:35:14.938Z,4.00
2018-09-13T00:36:14.992Z,4.00
2018-09-13T00:37:14.901Z,4.00
2018-09-13T00:38:14.898Z,4.00
2018-09-13T00:39:14.871Z,4.00
2018-09-13T00:40:14.853Z,4.00
2018-09-13T00:41:14.836Z,4.00
2018-09-13T00:42:14.820Z,4.00
2018-09-13T00:43:14.811Z,4.00
2018-09-13T00:44:17.469Z,4.00
2018-09-13T00:45:14.771Z,4.00
2018-09-13T00:46:14.752Z,4.00
2018-09-13T00:47:14.733Z,4.00
2018-09-13T00:48:14.728Z,4.00
2018-09-13T00:49:14.711Z,4.00
2018-09-13T00:50:14.684Z,4.00
2018-09-13T00:51:14.669Z,4.00
2018-09-13T00:52:14.650Z,4.00
2018-09-13T00:53:14.634Z,4.00
2018-09-13T00:54:14.628Z,4.00
2018-09-13T00:55:14.599Z,4.00
2018-09-13T00:56:14.582Z,4.00
2018-09-13T00:57:14.574Z,4.00
2018-09-13T00:58:14.548Z,4.00
2018-09-13T00:59:14.534Z,4.00
2018-09-13T01:00:14.530Z,4.00
2018-09-13T01:01:14.506Z,4.00
2018-09-13T01:02:14.482Z,4.00
2018-09-13T01:03:14.471Z,4.00
2018-09-13T01:04:14.448Z,4.00
2018-09-13T01:05:14.428Z,4.00
2018-09-13T01:06:14.411Z,4.00
2018-09-13T01:07:14.399Z,4.00
2018-09-13T01:08:14.379Z,4.00
2018-09-13T01:09:14.363Z,4.00
2018-09-13T01:10:14.348Z,4.00
2018-09-13T01:11:14.338Z,4.00
2018-09-13T01:12:14.311Z,4.00
2018-09-13T01:13:14.296Z,4.00
2018-09-13T01:14:14.330Z,4.00
2018-09-13T01:15:14.264Z,4.00
2018-09-13T01:16:14.249Z,4.00
2018-09-13T01:17:14.226Z,4.00
2018-09-13T01:18:14.264Z,4.00
2018-09-13T01:19:14.192Z,4.00
2018-09-13T01:20:14.175Z,4.00
2018-09-13T01:21:14.166Z,4.00
2018-09-13T01:22:14.164Z,4.00
2018-09-13T01:23:14.125Z,4.00
2018-09-13T01:24:14.107Z,4.00
2018-09-13T01:25:14.091Z,4.00
2018-09-13T01:26:14.076Z,4.00
2018-09-13T01:27:14.057Z,4.00
2018-09-13T01:28:14.052Z,4.00
2018-09-13T01:29:14.024Z,4.00
2018-09-13T01:30:14.006Z,4.00
2018-09-13T01:31:14.004Z,4.00
2018-09-13T01:32:13.971Z,4.00
2018-09-13T01:33:13.955Z,4.00
2018-09-13T01:34:13.940Z,4.00
2018-09-13T01:35:13.929Z,4.00
2018-09-13T01:36:13.951Z,4.00
2018-09-13T01:37:13.890Z,4.00
2018-09-13T01:38:13.877Z,4.00
2018-09-13T01:39:13.856Z,4.00
2018-09-13T01:40:13.835Z,4.00
2018-09-13T01:41:13.892Z,4.00
2018-09-13T01:42:13.805Z,4.00
2018-09-13T01:43:13.801Z,4.00
2018-09-13T01:44:13.794Z,4.00
2018-09-13T01:45:13.756Z,4.00
2018-09-13T01:46:13.735Z,4.00
2018-09-13T01:47:13.717Z,4.00
2018-09-13T01:48:13.698Z,4.00
2018-09-13T01:49:13.685Z,4.00
2018-09-13T01:50:13.667Z,4.00
2018-09-13T01:51:13.654Z,4.00
2018-09-13T01:52:13.835Z,4.00
2018-09-13T01:53:13.618Z,4.00
2018-09-13T01:54:13.599Z,4.00
2018-09-13T01:55:13.584Z,4.00
2018-09-13T01:56:13.570Z,4.00
2018-09-13T01:57:13.558Z,4.00
2018-09-13T01:58:13.535Z,4.00
2018-09-13T01:59:13.522Z,4.00
2018-09-13T02:00:13.600Z,4.00
2018-09-13T02:01:13.483Z,4.00
2018-09-13T02:02:13.469Z,4.00
2018-09-13T02:03:13.445Z,4.00
2018-09-13T02:04:13.439Z,4.00
2018-09-13T02:05:13.414Z,4.00
2018-09-13T02:06:13.398Z,4.00
2018-09-13T02:07:13.382Z,4.00
2018-09-13T02:08:13.363Z,4.00
2018-09-13T02:09:13.343Z,4.00
2018-09-13T02:10:13.328Z,4.00
2018-09-13T02:11:13.314Z,4.00
2018-09-13T02:12:13.292Z,4.00
2018-09-13T02:13:13.276Z,4.00
2018-09-13T02:14:13.259Z,4.00
2018-09-13T02:15:13.244Z,4.00
2018-09-13T02:16:13.225Z,4.00
2018-09-13T02:17:13.215Z,4.00
2018-09-13T02:18:13.193Z,4.00
2018-09-13T02:19:13.173Z,4.00
2018-09-13T02:20:13.158Z,4.00
2018-09-13T02:21:13.144Z,4.00
2018-09-13T02:22:13.123Z,4.00
2018-09-13T02:23:13.109Z,4.00
2018-09-13T02:24:13.191Z,4.00
2018-09-13T02:25:13.079Z,4.00
2018-09-13T02:26:13.055Z,4.00
2018-09-13T02:27:13.037Z,4.00
2018-09-13T02:28:13.020Z,4.00
2018-09-13T02:29:13.005Z,4.00
2018-09-13T02:30:12.986Z,4.00
2018-09-13T02:31:12.968Z,4.00
2018-09-13T02:32:12.950Z,4.00
2018-09-13T02:33:12.947Z,4.00
2018-09-13T02:34:12.917Z,4.00
2018-09-13T02:35:12.899Z,4.00
2018-09-13T02:36:12.883Z,4.00
2018-09-13T02:37:12.870Z,4.00
2018-09-13T02:38:12.852Z,4.00
2018-09-13T02:39:12.831Z,4.00
2018-09-13T02:40:12.822Z,4.00
2018-09-13T02:41:12.806Z,4.00
2018-09-13T02:42:12.780Z,4.00
2018-09-13T02:43:12.774Z,4.00
2018-09-13T02:44:12.756Z,4.00
2018-09-13T02:45:12.740Z,4.00
2018-09-13T02:46:12.815Z,4.00
2018-09-13T02:47:12.698Z,4.00
2018-09-13T02:48:12.679Z,4.00
2018-09-13T02:49:12.733Z,4.00
2018-09-13T02:50:12.642Z,4.00
2018-09-13T02:51:12.626Z,4.00
2018-09-13T02:52:12.608Z,4.00
2018-09-13T02:53:12.592Z,4.00
2018-09-13T02:54:12.580Z,4.00
2018-09-13T02:55:12.562Z,4.00
2018-09-13T02:56:12.543Z,4.00
2018-09-13T02:57:12.529Z,4.00
2018-09-13T02:58:12.506Z,4.00
2018-09-13T02:59:12.492Z,4.00
2018-09-13T03:00:12.475Z,4.00
2018-09-13T03:01:12.458Z,4.00
2018-09-13T03:02:12.442Z,4.00
2018-09-13T03:03:12.423Z,4.00
2018-09-13T03:04:12.409Z,4.00
2018-09-13T03:05:12.388Z,4.00
2018-09-13T03:06:12.449Z,4.00
2018-09-13T03:07:12.355Z,4.00
2018-09-13T03:08:12.379Z,4.00
2018-09-13T03:09:12.319Z,4.00
2018-09-13T03:10:12.490Z,4.00
2018-09-13T03:11:12.285Z,4.00
2018-09-13T03:12:12.267Z,4.00
2018-09-13T03:13:12.259Z,4.00
2018-09-13T03:14:12.234Z,4.00
2018-09-13T03:15:12.218Z,4.00
2018-09-13T03:16:12.252Z,4.00
2018-09-13T03:17:12.182Z,4.00
2018-09-13T03:18:12.167Z,4.00
2018-09-13T03:19:12.151Z,4.00
2018-09-13T03:20:12.131Z,4.00
2018-09-13T03:21:12.116Z,4.00
2018-09-13T03:22:12.100Z,4.00
2018-09-13T03:23:12.083Z,4.00
2018-09-13T03:24:12.062Z,4.00
2018-09-13T03:25:12.046Z,4.00
2018-09-13T03:26:12.038Z,4.00
2018-09-13T03:27:12.016Z,4.00
2018-09-13T03:28:11.997Z,4.00
2018-09-13T03:29:12.117Z,4.00
2018-09-13T03:30:11.963Z,4.00
2018-09-13T03:31:11.956Z,4.00
2018-09-13T03:32:11.983Z,4.00
2018-09-13T03:33:11.914Z,4.00
2018-09-13T03:34:11.896Z,4.00
2018-09-13T03:35:11.880Z,4.00
2018-09-13T03:36:11.859Z,4.00
2018-09-13T03:37:11.845Z,4.00
2018-09-13T03:38:11.821Z,4.00
2018-09-13T03:39:11.805Z,4.00
2018-09-13T03:40:11.790Z,4.00
2018-09-13T03:41:11.772Z,4.00
2018-09-13T03:42:11.758Z,4.00
2018-09-13T03:43:11.740Z,4.00
2018-09-13T03:44:11.720Z,4.00
2018-09-13T03:45:11.705Z,4.00
2018-09-13T03:46:11.694Z,4.00
2018-09-13T03:47:11.669Z,4.00
2018-09-13T03:48:11.654Z,4.00
2018-09-13T03:49:11.638Z,4.00
2018-09-13T03:50:11.627Z,4.00
2018-09-13T03:51:11.601Z,4.00
2018-09-13T03:52:11.584Z,4.00
2018-09-13T03:53:11.566Z,4.00
2018-09-13T03:54:11.554Z,4.00
2018-09-13T03:55:11.535Z,4.00
2018-09-13T03:56:11.525Z,4.00
2018-09-13T03:57:11.499Z,4.00
2018-09-13T03:58:11.481Z,4.00
2018-09-13T03:59:11.472Z,4.00
2018-09-13T04:00:11.448Z,4.00
2018-09-13T04:01:11.433Z,4.00
2018-09-13T04:02:11.422Z,4.00
2018-09-13T04:03:11.439Z,4.00
2018-09-13T04:04:11.379Z,4.00
2018-09-13T04:05:11.361Z,4.00
2018-09-13T04:06:11.348Z,4.00
2018-09-13T04:07:11.336Z,4.00
2018-09-13T04:08:11.313Z,4.00
2018-09-13T04:09:11.362Z,4.00
2018-09-13T04:10:11.277Z,4.00
2018-09-13T04:11:11.263Z,4.00
2018-09-13T04:12:11.244Z,4.00
2018-09-13T04:13:11.226Z,4.00
2018-09-13T04:14:11.208Z,4.00
2018-09-13T04:15:11.194Z,4.00
2018-09-13T04:16:11.172Z,4.00
2018-09-13T04:17:11.156Z,4.00
2018-09-13T04:18:11.292Z,4.00
2018-09-13T04:19:11.125Z,4.00
2018-09-13T04:20:11.114Z,4.00
2018-09-13T04:21:11.119Z,4.00
2018-09-13T04:22:11.072Z,4.00
2018-09-13T04:23:11.062Z,4.00
2018-09-13T04:24:11.040Z,4.00
2018-09-13T04:25:11.018Z,4.00
2018-09-13T04:26:11.002Z,4.00
2018-09-13T04:27:10.985Z,4.00
2018-09-13T04:28:10.967Z,4.00
2018-09-13T04:29:10.951Z,4.00
2018-09-13T04:30:10.932Z,8.00
2018-09-13T04:31:10.920Z,8.00
2018-09-13T04:32:10.903Z,4.00
2018-09-13T04:33:10.883Z,4.00
2018-09-13T04:34:10.865Z,4.00
2018-09-13T04:35:10.860Z,4.00
2018-09-13T04:36:11.082Z,4.00
2018-09-13T04:37:10.812Z,8.00
2018-09-13T04:38:10.797Z,8.00
2018-09-13T04:39:10.781Z,8.00
2018-09-13T04:40:10.762Z,8.00
2018-09-13T04:41:10.744Z,12.00
2018-09-13T04:42:10.727Z,8.00
2018-09-13T04:43:10.710Z,12.00
2018-09-13T04:44:10.693Z,8.00
2018-09-13T04:45:10.735Z,12.00
2018-09-13T04:46:10.657Z,12.00
2018-09-13T04:47:10.642Z,16.00
2018-09-13T04:48:10.675Z,16.00
2018-09-13T04:49:10.681Z,20.00
2018-09-13T04:50:10.593Z,20.00
2018-09-13T04:51:10.571Z,24.00
2018-09-13T04:52:10.554Z,20.00
2018-09-13T04:53:10.536Z,24.00
2018-09-13T04:54:10.520Z,24.00
2018-09-13T04:55:10.501Z,24.00
2018-09-13T04:56:10.491Z,32.00
2018-09-13T04:57:10.468Z,32.00
2018-09-13T04:58:10.453Z,36.00
2018-09-13T04:59:10.434Z,36.00
2018-09-13T05:00:10.442Z,40.00
2018-09-13T05:01:10.410Z,40.00
2018-09-13T05:02:10.383Z,44.00
2018-09-13T05:03:10.365Z,48.00
2018-09-13T05:04:10.362Z,52.00
2018-09-13T05:05:10.332Z,60.00
2018-09-13T05:06:10.328Z,60.00
2018-09-13T05:07:10.296Z,64.00
2018-09-13T05:08:10.278Z,72.00
2018-09-13T05:09:10.260Z,72.00
2018-09-13T05:10:10.299Z,76.00
2018-09-13T05:11:10.228Z,80.00
2018-09-13T05:12:10.209Z,84.00
2018-09-13T05:13:10.192Z,88.00
2018-09-13T05:14:10.184Z,88.00
2018-09-13T05:15:10.160Z,92.00
2018-09-13T05:16:10.141Z,96.00
2018-09-13T05:17:10.126Z,100.00
2018-09-13T05:18:10.107Z,100.00
2018-09-13T05:19:10.099Z,104.00
2018-09-13T05:20:10.079Z,108.00
2018-09-13T05:21:10.056Z,112.00
2018-09-13T05:22:10.042Z,116.00
2018-09-13T05:23:10.140Z,120.00
2018-09-13T05:24:10.006Z,128.00
2018-09-13T05:25:09.987Z,128.00
2018-09-13T05:26:09.970Z,128.00
2018-09-13T05:27:09.956Z,128.00
2018-09-13T05:28:09.938Z,128.00
2018-09-13T05:29:09.917Z,128.00
2018-09-13T05:30:09.899Z,132.00
2018-09-13T05:31:09.884Z,136.00
2018-09-13T05:32:09.866Z,144.00
2018-09-13T05:33:09.849Z,152.00
2018-09-13T05:34:09.954Z,164.00
2018-09-13T05:35:09.817Z,176.00
2018-09-13T05:36:09.807Z,184.00
2018-09-13T05:37:09.778Z,196.00
2018-09-13T05:38:09.767Z,204.00
2018-09-13T05:39:09.754Z,208.00
2018-09-13T05:40:09.732Z,212.00
2018-09-13T05:41:09.713Z,220.00
2018-09-13T05:42:09.696Z,228.00
2018-09-13T05:43:09.677Z,232.00
2018-09-13T05:44:09.659Z,244.00
2018-09-13T05:45:09.648Z,256.00
2018-09-13T05:46:09.624Z,272.00
2018-09-13T05:47:09.607Z,292.00
2018-09-13T05:48:09.590Z,308.00
2018-09-13T05:49:09.571Z,332.00
2018-09-13T05:50:09.553Z,360.00
2018-09-13T05:51:09.573Z,388.00
2018-09-13T05:52:09.523Z,400.00
2018-09-13T05:53:09.511Z,420.00
2018-09-13T05:54:09.486Z,448.00
2018-09-13T05:55:09.469Z,480.00
2018-09-13T05:56:09.469Z,508.00
2018-09-13T05:57:09.437Z,540.00
2018-09-13T05:58:09.436Z,572.00
2018-09-13T05:59:09.400Z,628.00
2018-09-13T06:00:09.388Z,696.00
2018-09-13T06:01:09.368Z,752.00
2018-09-13T06:02:09.347Z,816.00
2018-09-13T06:03:09.339Z,908.00
2018-09-13T06:04:09.318Z,1032.00
2018-09-13T06:05:09.295Z,1180.00
2018-09-13T06:06:09.282Z,1360.00
2018-09-13T06:07:09.263Z,1552.00
2018-09-13T06:08:09.247Z,1692.00
2018-09-13T06:09:09.226Z,1748.00
2018-09-13T06:10:09.209Z,1768.00
2018-09-13T06:11:09.191Z,1828.00
2018-09-13T06:12:09.174Z,1872.00
2018-09-13T06:13:09.156Z,1932.00
2018-09-13T06:14:09.141Z,1984.00
2018-09-13T06:15:09.123Z,2028.00
2018-09-13T06:16:09.108Z,2044.00
2018-09-13T06:17:09.093Z,2116.00
2018-09-13T06:18:09.072Z,2212.00
2018-09-13T06:19:09.063Z,2304.00
2018-09-13T06:20:09.037Z,2400.00
2018-09-13T06:21:09.020Z,2464.00
2018-09-13T06:22:09.002Z,2532.00
2018-09-13T06:23:08.990Z,2584.00
2018-09-13T06:24:08.969Z,2552.00
2018-09-13T06:25:08.950Z,2564.00
2018-09-13T06:26:08.934Z,2628.00
2018-09-13T06:27:08.922Z,2660.00
2018-09-13T06:28:08.903Z,2724.00
2018-09-13T06:29:08.892Z,2780.00
2018-09-13T06:30:08.877Z,2900.00
2018-09-13T06:31:08.851Z,3012.00
2018-09-13T06:32:08.835Z,3156.00
2018-09-13T06:33:08.813Z,3312.00
2018-09-13T06:34:08.798Z,3488.00
2018-09-13T06:35:08.789Z,3560.00
2018-09-13T06:36:08.764Z,3600.00
2018-09-13T06:37:08.748Z,3724.00
2018-09-13T06:38:08.734Z,3808.00
2018-09-13T06:39:08.714Z,3924.00
2018-09-13T06:40:08.701Z,4048.00
2018-09-13T06:41:08.681Z,4016.00
2018-09-13T06:42:08.764Z,3904.00
2018-09-13T06:43:08.647Z,3812.00
2018-09-13T06:44:08.646Z,3816.00
2018-09-13T06:45:08.636Z,3936.00
2018-09-13T06:46:08.607Z,4240.00
2018-09-13T06:47:08.580Z,4576.00
2018-09-13T06:48:08.566Z,4820.00
2018-09-13T06:49:08.548Z,5036.00
2018-09-13T06:50:08.529Z,5144.00
2018-09-13T06:51:08.513Z,5088.00
2018-09-13T06:52:08.496Z,5008.00
2018-09-13T06:53:08.480Z,4912.00
2018-09-13T06:54:08.522Z,4892.00
2018-09-13T06:55:08.454Z,4988.00
2018-09-13T06:56:08.428Z,5240.00
2018-09-13T06:57:08.417Z,5452.00
2018-09-13T06:58:08.399Z,5644.00
2018-09-13T06:59:08.379Z,5764.00
2018-09-13T07:00:08.361Z,5892.00
2018-09-13T07:01:08.354Z,6044.00
2018-09-13T07:02:08.329Z,6152.00
2018-09-13T07:03:08.313Z,6416.00
2018-09-13T07:04:08.294Z,6800.00
2018-09-13T07:05:08.282Z,6972.00
2018-09-13T07:06:08.270Z,6992.00
2018-09-13T07:07:08.246Z,7144.00
2018-09-13T07:08:08.229Z,7244.00
2018-09-13T07:09:08.343Z,6900.00
2018-09-13T07:10:08.201Z,6532.00
2018-09-13T07:11:08.190Z,6148.00
2018-09-13T07:12:08.209Z,5760.00
2018-09-13T07:13:08.149Z,5992.00
2018-09-13T07:14:08.131Z,6852.00
2018-09-13T07:15:08.117Z,6948.00
2018-09-13T07:16:08.107Z,6332.00
2018-09-13T07:17:08.083Z,6580.00
2018-09-13T07:18:08.072Z,6256.00
2018-09-13T07:19:08.050Z,5716.00
2018-09-13T07:20:08.031Z,5436.00
2018-09-13T07:21:08.015Z,5328.00
2018-09-13T07:22:08.001Z,5308.00
2018-09-13T07:23:07.996Z,5208.00
2018-09-13T07:24:07.978Z,5220.00
2018-09-13T07:25:07.949Z,5324.00
2018-09-13T07:26:07.937Z,5852.00
2018-09-13T07:27:07.920Z,6232.00
2018-09-13T07:28:07.901Z,6480.00
2018-09-13T07:29:07.888Z,6948.00
2018-09-13T07:30:07.877Z,8416.00
2018-09-13T07:31:07.952Z,9088.00
2018-09-13T07:32:07.853Z,9424.00
2018-09-13T07:33:07.820Z,10068.00
2018-09-13T07:34:07.807Z,9272.00
2018-09-13T07:35:07.785Z,8444.00
2018-09-13T07:36:07.772Z,8132.00
2018-09-13T07:37:07.757Z,8768.00
2018-09-13T07:38:07.739Z,9204.00
2018-09-13T07:39:07.725Z,9328.00
2018-09-13T07:40:07.710Z,8056.00
2018-09-13T07:41:07.691Z,8604.00
2018-09-13T07:42:07.676Z,7888.00
2018-09-13T07:43:07.662Z,7084.00
2018-09-13T07:44:07.640Z,7208.00
2018-09-13T07:45:07.626Z,7416.00
2018-09-13T07:46:07.610Z,6500.00
2018-09-13T07:47:07.796Z,5536.00
2018-09-13T07:48:07.577Z,4876.00
2018-09-13T07:49:07.570Z,4748.00
2018-09-13T07:50:07.561Z,4116.00
2018-09-13T07:51:07.538Z,3836.00
2018-09-13T07:52:07.523Z,3592.00
2018-09-13T07:53:07.496Z,3372.00
2018-09-13T07:54:07.485Z,3700.00
2018-09-13T07:55:07.554Z,4852.00
2018-09-13T07:56:07.449Z,5664.00
2018-09-13T07:57:07.435Z,4840.00
2018-09-13T07:58:07.476Z,4768.00
2018-09-13T07:59:07.400Z,5484.00
2018-09-13T08:00:07.385Z,6400.00
2018-09-13T08:01:07.369Z,7248.00
2018-09-13T08:02:07.362Z,7636.00
2018-09-13T08:03:07.340Z,7564.00
2018-09-13T08:04:07.325Z,6964.00
2018-09-13T08:05:07.352Z,6024.00
2018-09-13T08:06:07.288Z,4800.00
2018-09-13T08:07:07.273Z,4076.00
2018-09-13T08:08:07.253Z,3656.00
2018-09-13T08:09:07.239Z,3788.00
2018-09-13T08:10:07.222Z,4440.00
2018-09-13T08:11:07.207Z,4904.00
2018-09-13T08:12:07.287Z,4860.00
2018-09-13T08:13:07.178Z,4164.00
2018-09-13T08:14:07.205Z,3724.00
2018-09-13T08:15:07.145Z,3636.00
2018-09-13T08:16:07.125Z,4260.00
2018-09-13T08:17:07.142Z,5232.00
2018-09-13T08:18:07.117Z,6284.00
2018-09-13T08:19:07.092Z,7752.00
2018-09-13T08:20:07.072Z,9000.00
2018-09-13T08:21:07.098Z,8776.00
2018-09-13T08:22:07.102Z,7824.00
2018-09-13T08:23:07.016Z,6872.00
2018-09-13T08:24:06.996Z,5684.00
2018-09-13T08:25:06.983Z,5888.00
2018-09-13T08:26:06.971Z,7180.00
2018-09-13T08:27:06.965Z,8440.00
2018-09-13T08:28:06.932Z,10272.00
2018-09-13T08:29:06.915Z,11596.00
2018-09-13T08:30:06.898Z,11864.00
2018-09-13T08:31:06.881Z,11504.00
2018-09-13T08:32:06.867Z,10476.00
2018-09-13T08:33:06.864Z,9412.00
2018-09-13T08:34:06.846Z,8552.00
2018-09-13T08:35:06.883Z,8444.00
2018-09-13T08:36:06.912Z,9544.00
2018-09-13T08:37:06.881Z,9964.00
2018-09-13T08:38:06.772Z,10152.00
2018-09-13T08:39:06.756Z,10624.00
2018-09-13T08:40:06.801Z,11148.00
2018-09-13T08:41:06.727Z,12368.00
2018-09-13T08:42:06.711Z,12868.00
2018-09-13T08:43:06.699Z,12664.00
2018-09-13T08:44:06.745Z,12320.00
2018-09-13T08:45:06.659Z,11896.00
2018-09-13T08:46:06.645Z,11852.00
2018-09-13T08:47:06.627Z,12024.00
2018-09-13T08:48:06.620Z,12296.00
2018-09-13T08:49:06.599Z,12420.00
2018-09-13T08:50:06.584Z,11592.00
2018-09-13T08:51:06.583Z,10156.00
2018-09-13T08:52:06.573Z,9412.00
2018-09-13T08:53:06.535Z,9456.00
2018-09-13T08:54:06.521Z,9780.00
2018-09-13T08:55:06.561Z,9964.00
2018-09-13T08:56:06.492Z,9892.00
2018-09-13T08:57:06.474Z,9868.00
2018-09-13T08:58:06.468Z,10000.00
2018-09-13T08:59:06.445Z,10132.00
2018-09-13T09:00:06.446Z,10184.00
2018-09-13T09:01:06.420Z,10340.00
2018-09-13T09:02:06.396Z,11000.00
2018-09-13T09:03:06.394Z,12564.00
2018-09-13T09:04:06.391Z,14828.00
2018-09-13T09:05:06.362Z,17504.00
2018-09-13T09:06:06.396Z,17696.00
2018-09-13T09:07:06.324Z,16724.00
2018-09-13T09:08:06.308Z,15664.00
2018-09-13T09:09:06.300Z,14776.00
2018-09-13T09:10:06.276Z,13744.00
2018-09-13T09:11:06.264Z,14304.00
2018-09-13T09:12:06.262Z,18400.00
2018-09-13T09:13:06.231Z,19872.00
2018-09-13T09:14:06.222Z,17728.00
2018-09-13T09:15:06.202Z,16264.00
2018-09-13T09:16:06.212Z,17440.00
2018-09-13T09:17:06.171Z,18848.00
2018-09-13T09:18:06.172Z,18208.00
2018-09-13T09:19:06.229Z,16288.00
2018-09-13T09:20:06.137Z,14960.00
2018-09-13T09:21:06.121Z,14956.00
2018-09-13T09:22:06.164Z,15452.00
2018-09-13T09:23:06.080Z,15164.00
2018-09-13T09:24:06.070Z,14920.00
2018-09-13T09:25:06.050Z,14472.00
2018-09-13T09:26:06.037Z,14872.00
2018-09-13T09:27:06.030Z,18432.00
2018-09-13T09:28:06.006Z,23552.00
2018-09-13T09:29:06.062Z,25312.00
2018-09-13T09:30:05.985Z,26048.00
2018-09-13T09:31:05.963Z,23264.00
2018-09-13T09:32:05.946Z,18208.00
2018-09-13T09:33:05.935Z,17536.00
2018-09-13T09:34:05.926Z,16496.00
2018-09-13T09:35:05.965Z,15256.00
2018-09-13T09:36:05.913Z,14080.00
2018-09-13T09:37:05.878Z,12684.00
2018-09-13T09:38:05.863Z,11112.00
2018-09-13T09:39:05.862Z,9300.00
2018-09-13T09:40:05.832Z,7932.00
2018-09-13T09:41:05.823Z,7476.00
2018-09-13T09:42:05.812Z,8308.00
2018-09-13T09:43:05.928Z,10080.00
2018-09-13T09:44:05.793Z,10212.00
2018-09-13T09:45:05.767Z,10064.00
2018-09-13T09:46:05.756Z,10032.00
2018-09-13T09:47:05.731Z,10012.00
2018-09-13T09:48:05.839Z,9924.00
2018-09-13T09:49:05.755Z,9544.00
2018-09-13T09:50:05.697Z,9720.00
2018-09-13T09:51:05.673Z,10372.00
2018-09-13T09:52:05.772Z,11152.00
2018-09-13T09:53:05.645Z,11240.00
2018-09-13T09:54:05.628Z,11168.00
2018-09-13T09:55:05.614Z,11500.00
2018-09-13T09:56:05.656Z,12472.00
2018-09-13T09:57:05.584Z,13492.00
2018-09-13T09:58:05.682Z,14896.00
2018-09-13T09:59:05.558Z,17408.00
2018-09-13T10:00:05.547Z,18144.00
2018-09-13T10:01:05.542Z,18816.00
2018-09-13T10:02:05.516Z,18464.00
2018-09-13T10:03:05.570Z,18592.00
2018-09-13T10:04:05.487Z,19680.00
2018-09-13T10:05:05.469Z,23872.00
2018-09-13T10:06:05.453Z,29952.00
2018-09-13T10:07:05.440Z,34528.00
2018-09-13T10:08:05.528Z,21728.00
2018-09-13T10:09:05.483Z,17632.00
2018-09-13T10:10:05.401Z,14064.00
2018-09-13T10:11:05.391Z,13092.00
2018-09-13T10:12:05.377Z,13748.00
2018-09-13T10:13:05.362Z,15760.00
2018-09-13T10:14:05.348Z,18048.00
2018-09-13T10:15:05.337Z,18592.00
2018-09-13T10:16:05.401Z,21024.00
2018-09-13T10:17:05.301Z,21728.00
2018-09-13T10:18:05.290Z,22016.00
2018-09-13T10:19:05.274Z,24032.00
2018-09-13T10:20:05.260Z,26304.00
2018-09-13T10:21:05.243Z,30720.00
2018-09-13T10:22:05.233Z,28320.00
2018-09-13T10:23:05.218Z,23616.00
2018-09-13T10:24:05.211Z,24960.00
2018-09-13T10:25:05.193Z,21888.00
2018-09-13T10:26:05.183Z,19168.00
2018-09-13T10:27:05.219Z,14036.00
2018-09-13T10:28:05.155Z,12176.00
2018-09-13T10:29:05.324Z,11176.00
2018-09-13T10:30:05.124Z,10928.00
2018-09-13T10:31:05.112Z,10928.00
2018-09-13T10:32:05.120Z,11316.00
2018-09-13T10:33:05.090Z,11816.00
2018-09-13T10:34:05.072Z,12404.00
2018-09-13T10:35:05.056Z,13048.00
2018-09-13T10:36:05.041Z,13412.00
2018-09-13T10:37:05.032Z,13768.00
2018-09-13T10:38:05.014Z,14476.00
2018-09-13T10:39:05.002Z,14960.00
2018-09-13T10:40:04.996Z,15864.00
2018-09-13T10:41:04.984Z,16608.00
2018-09-13T10:42:04.968Z,17248.00
2018-09-13T10:43:04.945Z,18688.00
2018-09-13T10:44:04.940Z,20480.00
2018-09-13T10:45:04.926Z,35456.00
2018-09-13T10:46:04.913Z,50688.00
2018-09-13T10:47:04.895Z,35328.00
2018-09-13T10:48:05.037Z,71744.00
2018-09-13T10:49:04.866Z,59712.00
2018-09-13T10:50:04.851Z,26432.00
2018-09-13T10:51:04.840Z,19488.00
2018-09-13T10:52:04.829Z,17440.00
2018-09-13T10:53:04.817Z,16208.00
2018-09-13T10:54:04.802Z,17504.00
2018-09-13T10:55:04.787Z,18528.00
2018-09-13T10:56:04.785Z,20032.00
2018-09-13T10:57:04.763Z,22240.00
2018-09-13T10:58:04.750Z,29952.00
2018-09-13T10:59:04.803Z,49792.00
2018-09-13T11:00:04.728Z,36672.00
2018-09-13T11:01:04.722Z,31168.00
2018-09-13T11:02:04.699Z,23328.00
2018-09-13T11:03:04.693Z,24032.00
2018-09-13T11:04:04.714Z,19936.00
2018-09-13T11:05:04.661Z,14852.00
2018-09-13T11:06:04.655Z,14540.00
2018-09-13T11:07:04.649Z,15776.00
2018-09-13T11:08:04.625Z,16204.00
2018-09-13T11:09:04.617Z,15268.00
2018-09-13T11:10:04.604Z,13960.00
2018-09-13T11:11:04.770Z,12540.00
2018-09-13T11:12:04.606Z,11308.00
2018-09-13T11:13:04.573Z,10376.00
2018-09-13T11:14:04.570Z,9868.00
2018-09-13T11:15:04.543Z,9668.00
2018-09-13T11:16:04.536Z,10020.00
2018-09-13T11:17:04.515Z,10608.00
2018-09-13T11:18:04.504Z,11392.00
2018-09-13T11:19:04.494Z,12752.00
2018-09-13T11:20:04.482Z,14008.00
2018-09-13T11:21:04.464Z,14916.00
2018-09-13T11:22:04.451Z,15800.00
2018-09-13T11:23:04.437Z,16992.00
2018-09-13T11:24:04.423Z,17792.00
2018-09-13T11:25:04.419Z,18304.00
2018-09-13T11:26:04.397Z,19392.00
2018-09-13T11:27:04.389Z,21440.00
2018-09-13T11:28:04.382Z,24576.00
2018-09-13T11:29:04.375Z,24000.00
2018-09-13T11:30:04.354Z,20128.00
2018-09-13T11:31:04.335Z,17824.00
2018-09-13T11:32:04.319Z,15552.00
2018-09-13T11:33:04.308Z,14888.00
2018-09-13T11:34:04.297Z,13032.00
2018-09-13T11:35:04.288Z,11172.00
2018-09-13T11:36:04.270Z,10004.00
2018-09-13T11:37:04.264Z,8984.00
2018-09-13T11:38:04.241Z,8368.00
2018-09-13T11:39:04.229Z,8060.00
2018-09-13T11:40:04.282Z,7580.00
2018-09-13T11:41:04.392Z,7352.00
2018-09-13T11:42:04.195Z,7284.00
2018-09-13T11:43:04.179Z,7204.00
2018-09-13T11:44:04.163Z,7208.00
2018-09-13T11:45:04.150Z,7060.00
2018-09-13T11:46:04.141Z,6892.00
2018-09-13T11:47:04.238Z,6832.00
2018-09-13T11:48:04.108Z,6780.00
2018-09-13T11:49:04.098Z,6860.00
2018-09-13T11:50:04.089Z,6936.00
2018-09-13T11:51:04.076Z,7216.00
2018-09-13T11:52:04.059Z,7748.00
2018-09-13T11:53:04.050Z,8396.00
2018-09-13T11:54:04.098Z,9060.00
2018-09-13T11:55:04.030Z,9168.00
2018-09-13T11:56:04.005Z,9528.00
2018-09-13T11:57:03.992Z,10220.00
2018-09-13T11:58:03.986Z,11720.00
2018-09-13T11:59:03.960Z,13904.00
2018-09-13T12:00:03.964Z,15884.00
2018-09-13T12:01:03.969Z,17792.00
2018-09-13T12:02:03.979Z,18720.00
2018-09-13T12:03:03.915Z,19744.00
2018-09-13T12:04:03.906Z,20800.00
2018-09-13T12:05:03.881Z,22080.00
2018-09-13T12:06:03.869Z,22176.00
2018-09-13T12:07:03.854Z,21280.00
2018-09-13T12:08:03.843Z,20032.00
2018-09-13T12:09:03.826Z,18816.00
2018-09-13T12:10:03.812Z,18368.00
2018-09-13T12:11:03.801Z,16736.00
2018-09-13T12:12:03.792Z,16640.00
2018-09-13T12:13:03.776Z,15824.00
2018-09-13T12:14:03.861Z,14800.00
2018-09-13T12:15:03.757Z,14184.00
2018-09-13T12:16:03.733Z,14100.00
2018-09-13T12:17:03.730Z,14276.00
2018-09-13T12:18:03.861Z,14388.00
2018-09-13T12:19:03.703Z,13980.00
2018-09-13T12:20:03.679Z,13460.00
2018-09-13T12:21:03.679Z,12748.00
2018-09-13T12:22:03.653Z,12480.00
2018-09-13T12:23:03.650Z,12688.00
2018-09-13T12:24:03.628Z,12988.00
2018-09-13T12:25:03.615Z,13808.00
2018-09-13T12:26:03.602Z,14536.00
2018-09-13T12:27:03.599Z,14252.00
2018-09-13T12:28:03.581Z,14600.00